Time;durP1;ratioP1;P1;durP2;ratioP2;P2;SDS_P1;SDS_P2;PMS_P1;PMS_P2;Temp;Humidity;BMP_temperature;BMP_pressure;BME280_temperature;BME280_humidity;BME280_pressure;Samples;Min_cycle;Max_cycle;Signal;HPM_P1;HPM_P2
2023/05/16 00:01:01;;;;;;;2.22;2.03;;;;;;;;;;5029164;28;20128;-69
2023/05/16 00:03:29;;;;;;;2.50;1.90;;;;;;;;;;5030043;28;20046;-70
2023/05/16 00:05:56;;;;;;;2.65;1.77;;;;;;;;;;5029423;28;20391;-69
2023/05/16 00:08:25;;;;;;;2.38;1.88;;;;;;;;;;5029810;28;20514;-70
2023/05/16 00:10:51;;;;;;;1.65;1.55;;;;;;;;;;5029162;28;20099;-69
2023/05/16 00:13:23;;;;;;;2.50;1.50;;;;;;;;;;5030038;28;20045;-70
2023/05/16 00:15:50;;;;;;;2.17;1.58;;;;;;;;;;5030483;28;20049;-70
2023/05/16 00:18:18;;;;;;;1.73;1.50;;;;;;;;;;5029656;28;20041;-70
2023/05/16 00:20:44;;;;;;;2.50;1.52;;;;;;;;;;5029577;28;20411;-70
2023/05/16 00:23:11;;;;;;;1.52;1.40;;;;;;;;;;5029716;28;20055;-70
2023/05/16 00:25:39;;;;;;;2.55;1.40;;;;;;;;;;5029853;28;20132;-69
2023/05/16 00:28:07;;;;;;;1.50;1.40;;;;;;;;;;5029739;28;20042;-70
2023/05/16 00:30:33;;;;;;;1.92;1.40;;;;;;;;;;5029511;28;20057;-69
2023/05/16 00:33:00;;;;;;;1.55;1.30;;;;;;;;;;5029482;28;20050;-70
2023/05/16 00:35:27;;;;;;;3.17;1.52;;;;;;;;;;5029797;28;20053;-69
2023/05/16 00:37:53;;;;;;;2.17;1.20;;;;;;;;;;5029319;28;20094;-69
2023/05/16 00:40:20;;;;;;;1.85;1.65;;;;;;;;;;5030635;28;20045;-69
2023/05/16 00:42:48;;;;;;;3.38;1.85;;;;;;;;;;5033239;28;20053;-70
2023/05/16 00:45:15;;;;;;;1.83;1.65;;;;;;;;;;5033284;28;20049;-70
2023/05/16 00:47:41;;;;;;;2.47;1.40;;;;;;;;;;5032937;28;20041;-70
2023/05/16 00:50:09;;;;;;;1.58;1.45;;;;;;;;;;5032887;28;20133;-70
2023/05/16 00:52:35;;;;;;;1.55;1.40;;;;;;;;;;5033304;28;20153;-70
2023/05/16 00:55:02;;;;;;;1.40;1.30;;;;;;;;;;5033133;28;20049;-70
2023/05/16 00:57:29;;;;;;;2.50;1.40;;;;;;;;;;5033310;28;20049;-70
2023/05/16 00:59:57;;;;;;;1.88;1.60;;;;;;;;;;5032617;28;20083;-70
2023/05/16 01:02:27;;;;;;;1.83;1.60;;;;;;;;;;5033182;28;20041;-69
2023/05/16 01:04:55;;;;;;;1.70;1.45;;;;;;;;;;5032610;28;20053;-70
2023/05/16 01:07:22;;;;;;;2.63;1.70;;;;;;;;;;5033046;28;20073;-70
2023/05/16 01:09:48;;;;;;;1.98;1.70;;;;;;;;;;5032449;28;20042;-70
2023/05/16 01:12:23;;;;;;;2.75;1.80;;;;;;;;;;5032976;28;20045;-70
2023/05/16 01:15:02;;;;;;;1.92;1.55;;;;;;;;;;5032512;28;20054;-70
2023/05/16 01:17:36;;;;;;;2.50;1.90;;;;;;;;;;5032798;28;20050;-70
2023/05/16 01:20:14;;;;;;;3.72;1.73;;;;;;;;;;5032063;28;20260;-70
2023/05/16 01:22:52;;;;;;;1.67;1.50;;;;;;;;;;5032627;28;20056;-70
2023/05/16 01:25:31;;;;;;;1.67;1.38;;;;;;;;;;5032093;28;20064;-70
2023/05/16 01:28:01;;;;;;;1.35;1.20;;;;;;;;;;5033120;28;20049;-70
2023/05/16 01:30:32;;;;;;;2.50;1.67;;;;;;;;;;5032348;28;20052;-70
2023/05/16 01:32:58;;;;;;;1.70;1.38;;;;;;;;;;5032845;28;20050;-70
2023/05/16 01:35:25;;;;;;;2.08;1.50;;;;;;;;;;5032105;28;20076;-70
2023/05/16 01:37:59;;;;;;;2.17;1.40;;;;;;;;;;5032874;28;20511;-70
2023/05/16 01:40:35;;;;;;;2.05;1.40;;;;;;;;;;5032000;28;20136;-70
2023/05/16 01:43:08;;;;;;;2.42;1.25;;;;;;;;;;5032421;28;20049;-70
2023/05/16 01:45:40;;;;;;;2.30;1.30;;;;;;;;;;5031756;28;20056;-70
2023/05/16 01:48:10;;;;;;;1.95;1.30;;;;;;;;;;5032407;28;20104;-70
2023/05/16 01:50:43;;;;;;;1.60;1.20;;;;;;;;;;5029235;28;20059;-70
2023/05/16 01:53:12;;;;;;;;;;;;;;;;;;5032459;28;20063;-70
2023/05/16 01:55:43;;;;;;;1.63;1.52;;;;;;;;;;5031706;28;19921;-69
2023/05/16 01:58:12;;;;;;;1.80;1.23;;;;;;;;;;5031511;28;20046;-68
2023/05/16 02:00:39;;;;;;;1.50;1.30;;;;;;;;;;5031845;28;20057;-69
2023/05/16 02:03:06;;;;;;;1.33;1.15;;;;;;;;;;5031442;28;20064;-69
2023/05/16 02:05:32;;;;;;;1.20;1.10;;;;;;;;;;5032077;28;20577;-69
2023/05/16 02:07:59;;;;;;;2.28;1.40;;;;;;;;;;5031527;28;20419;-69
2023/05/16 02:10:26;;;;;;;1.60;1.13;;;;;;;;;;5031882;28;20041;-69
2023/05/16 02:12:53;;;;;;;1.88;1.30;;;;;;;;;;5031411;28;20046;-69
2023/05/16 02:15:21;;;;;;;2.97;1.40;;;;;;;;;;5031700;28;20053;-69
2023/05/16 02:17:47;;;;;;;2.25;1.02;;;;;;;;;;5031708;28;20053;-68
2023/05/16 02:20:14;;;;;;;2.72;1.15;;;;;;;;;;5030800;28;20068;-69
2023/05/16 02:22:41;;;;;;;1.48;1.08;;;;;;;;;;5031558;28;20045;-68
2023/05/16 02:25:09;;;;;;;1.27;0.98;;;;;;;;;;5031326;28;20484;-69
2023/05/16 02:27:35;;;;;;;1.23;1.00;;;;;;;;;;5031440;28;20066;-68
2023/05/16 02:30:03;;;;;;;2.10;1.00;;;;;;;;;;5030532;28;20503;-68
2023/05/16 02:32:31;;;;;;;2.30;1.02;;;;;;;;;;5031651;28;20171;-68
2023/05/16 02:34:57;;;;;;;0.80;0.80;;;;;;;;;;5031266;28;20045;-69
2023/05/16 02:37:24;;;;;;;1.33;0.90;;;;;;;;;;5031559;28;20046;-68
2023/05/16 02:39:51;;;;;;;1.23;1.00;;;;;;;;;;5030972;28;20626;-68
2023/05/16 02:42:17;;;;;;;0.90;0.90;;;;;;;;;;5031296;28;20053;-68
2023/05/16 02:44:44;;;;;;;1.35;0.85;;;;;;;;;;5030602;28;20052;-68
2023/05/16 02:47:11;;;;;;;1.70;0.95;;;;;;;;;;5031274;28;20483;-68
2023/05/16 02:49:38;;;;;;;1.40;0.90;;;;;;;;;;5029846;28;20064;-68
2023/05/16 02:52:06;;;;;;;1.20;1.08;;;;;;;;;;5031121;28;20049;-68
2023/05/16 02:54:33;;;;;;;1.48;1.02;;;;;;;;;;5031003;28;20104;-68
2023/05/16 02:56:59;;;;;;;2.10;0.90;;;;;;;;;;5030376;28;20057;-68
2023/05/16 02:59:26;;;;;;;0.93;0.90;;;;;;;;;;5030774;28;20049;-68
2023/05/16 03:01:53;;;;;;;2.63;0.80;;;;;;;;;;5030273;28;20042;-68
2023/05/16 03:04:19;;;;;;;1.15;0.70;;;;;;;;;;5029334;28;20049;-68
2023/05/16 03:06:47;;;;;;;1.25;0.80;;;;;;;;;;5027513;28;20479;-68
2023/05/16 03:09:13;;;;;;;1.73;0.93;;;;;;;;;;5030774;28;20049;-68
2023/05/16 03:11:40;;;;;;;0.80;0.80;;;;;;;;;;5029618;28;20048;-67
2023/05/16 03:14:07;;;;;;;1.02;0.80;;;;;;;;;;5030727;28;20045;-67
2023/05/16 03:16:35;;;;;;;1.73;0.80;;;;;;;;;;5029992;28;20608;-68
2023/05/16 03:19:02;;;;;;;0.90;0.80;;;;;;;;;;5030595;28;20136;-68
2023/05/16 03:21:28;;;;;;;1.45;1.35;;;;;;;;;;5029997;28;20107;-68
2023/05/16 03:23:57;;;;;;;1.02;0.77;;;;;;;;;;5030504;28;20068;-68
2023/05/16 03:26:23;;;;;;;0.75;0.70;;;;;;;;;;5030035;28;20046;-68
2023/05/16 03:28:50;;;;;;;0.80;0.80;;;;;;;;;;5029892;28;20045;-68
2023/05/16 03:31:18;;;;;;;1.00;0.77;;;;;;;;;;5029869;28;20053;-68
2023/05/16 03:33:44;;;;;;;1.70;0.77;;;;;;;;;;5030112;28;20127;-68
2023/05/16 03:36:11;;;;;;;0.70;0.70;;;;;;;;;;5030320;28;20100;-68
2023/05/16 03:38:37;;;;;;;1.50;0.90;;;;;;;;;;5030034;28;20056;-68
2023/05/16 03:41:05;;;;;;;1.35;0.70;;;;;;;;;;5029857;28;20431;-68
2023/05/16 03:43:32;;;;;;;1.25;0.70;;;;;;;;;;5030400;28;20434;-68
2023/05/16 03:46:00;;;;;;;0.93;0.70;;;;;;;;;;5030216;28;20056;-68
2023/05/16 03:48:27;;;;;;;0.93;0.73;;;;;;;;;;5029982;28;20118;-68
2023/05/16 03:50:53;;;;;;;2.20;0.80;;;;;;;;;;5029751;28;20506;-68
2023/05/16 03:53:20;;;;;;;1.40;0.80;;;;;;;;;;5029524;28;20053;-68
2023/05/16 03:55:47;;;;;;;0.80;0.80;;;;;;;;;;5030542;28;20125;-68
2023/05/16 03:58:15;;;;;;;1.92;0.90;;;;;;;;;;5030284;28;20057;-68
2023/05/16 04:00:42;;;;;;;2.25;0.93;;;;;;;;;;5029418;28;20051;-68
2023/05/16 04:03:08;;;;;;;0.90;0.85;;;;;;;;;;5030221;28;20578;-67
2023/05/16 04:05:35;;;;;;;1.13;0.77;;;;;;;;;;5029474;28;20492;-68
2023/05/16 04:08:01;;;;;;;1.17;1.08;;;;;;;;;;5029710;28;20041;-68
2023/05/16 04:10:28;;;;;;;1.60;0.82;;;;;;;;;;5029500;28;20149;-67
2023/05/16 04:12:54;;;;;;;1.23;1.00;;;;;;;;;;5030070;28;20045;-68
2023/05/16 04:15:22;;;;;;;1.08;0.90;;;;;;;;;;5031217;28;20132;-67
2023/05/16 04:17:49;;;;;;;0.98;0.90;;;;;;;;;;5034215;28;20503;-68
2023/05/16 04:20:15;;;;;;;1.02;0.93;;;;;;;;;;5033172;28;20045;-68
2023/05/16 04:22:42;;;;;;;0.80;0.80;;;;;;;;;;5033718;28;20264;-68
2023/05/16 04:25:10;;;;;;;0.60;0.60;;;;;;;;;;5033311;28;20052;-68
2023/05/16 04:27:37;;;;;;;0.50;0.45;;;;;;;;;;5033707;28;20232;-68
2023/05/16 04:30:04;;;;;;;1.05;0.70;;;;;;;;;;5033019;28;20095;-68
2023/05/16 04:32:34;;;;;;;1.20;0.70;;;;;;;;;;5033427;28;20065;-68
2023/05/16 04:35:00;;;;;;;0.80;0.70;;;;;;;;;;5033873;28;20087;-68
2023/05/16 04:37:27;;;;;;;1.33;0.75;;;;;;;;;;5033362;28;20050;-68
2023/05/16 04:39:54;;;;;;;1.25;0.70;;;;;;;;;;5033430;28;20052;-67
2023/05/16 04:42:21;;;;;;;1.10;0.80;;;;;;;;;;5033388;28;20049;-68
2023/05/16 04:44:47;;;;;;;1.77;0.75;;;;;;;;;;5033519;28;20054;-68
2023/05/16 04:47:14;;;;;;;2.05;0.60;;;;;;;;;;5032770;28;20056;-68
2023/05/16 04:49:42;;;;;;;2.28;0.75;;;;;;;;;;5032862;28;20053;-68
2023/05/16 04:52:08;;;;;;;3.35;1.27;;;;;;;;;;5033533;28;20041;-68
2023/05/16 04:54:35;;;;;;;1.10;0.85;;;;;;;;;;5033675;28;20084;-68
2023/05/16 04:57:01;;;;;;;4.03;0.68;;;;;;;;;;5032792;28;20050;-69
2023/05/16 04:59:28;;;;;;;2.25;0.65;;;;;;;;;;5033440;28;20045;-67
2023/05/16 05:01:54;;;;;;;2.05;0.80;;;;;;;;;;5032776;28;20048;-68
2023/05/16 05:04:21;;;;;;;0.70;0.70;;;;;;;;;;5032821;28;20072;-68
2023/05/16 05:06:49;;;;;;;0.93;0.60;;;;;;;;;;5032914;28;20045;-68
2023/05/16 05:09:16;;;;;;;1.00;0.77;;;;;;;;;;5033095;28;20049;-67
2023/05/16 05:11:42;;;;;;;1.08;0.90;;;;;;;;;;5033098;28;20545;-68
2023/05/16 05:14:09;;;;;;;4.32;0.82;;;;;;;;;;5032610;28;20050;-68
2023/05/16 05:16:36;;;;;;;1.27;0.70;;;;;;;;;;5032511;28;20049;-68
2023/05/16 05:19:02;;;;;;;0.70;0.60;;;;;;;;;;5032246;28;20056;-69
2023/05/16 05:21:29;;;;;;;1.50;0.85;;;;;;;;;;5032032;28;20049;-69
2023/05/16 05:23:57;;;;;;;2.20;0.70;;;;;;;;;;5032520;28;20045;-68
2023/05/16 05:26:25;;;;;;;1.95;1.00;;;;;;;;;;5031949;28;20056;-68
2023/05/16 05:28:51;;;;;;;1.98;0.80;;;;;;;;;;5032483;28;20100;-69
2023/05/16 05:31:18;;;;;;;1.10;0.75;;;;;;;;;;5031932;28;20144;-68
2023/05/16 05:33:45;;;;;;;2.92;1.35;;;;;;;;;;5032299;28;20045;-69
2023/05/16 05:36:11;;;;;;;1.25;0.80;;;;;;;;;;5032266;28;20059;-69
2023/05/16 05:38:38;;;;;;;5.15;4.65;;;;;;;;;;5032130;28;20049;-70
2023/05/16 05:41:06;;;;;;;3.63;1.40;;;;;;;;;;5032028;28;20056;-69
2023/05/16 05:43:33;;;;;;;2.78;1.20;;;;;;;;;;5031976;28;20487;-69
2023/05/16 05:45:59;;;;;;;2.65;1.05;;;;;;;;;;5032095;28;20955;-69
2023/05/16 05:48:27;;;;;;;0.82;0.80;;;;;;;;;;5032731;28;20503;-69
2023/05/16 05:50:54;;;;;;;2.83;1.23;;;;;;;;;;5031735;28;20555;-69
2023/05/16 05:53:20;;;;;;;2.28;1.00;;;;;;;;;;5032445;28;20479;-69
2023/05/16 05:55:47;;;;;;;3.13;1.10;;;;;;;;;;5031987;28;20499;-69
2023/05/16 05:58:15;;;;;;;1.48;0.80;;;;;;;;;;5032368;28;20049;-68
2023/05/16 06:00:41;;;;;;;1.95;0.90;;;;;;;;;;5027510;28;20225;-69
2023/05/16 06:03:08;;;;;;;2.30;1.30;;;;;;;;;;5023672;28;20134;-69
2023/05/16 06:05:37;;;;;;;1.70;1.00;;;;;;;;;;5011074;28;20045;-69
2023/05/16 06:08:04;;;;;;;1.27;1.00;;;;;;;;;;5011544;28;20133;-69
2023/05/16 06:10:30;;;;;;;3.95;0.90;;;;;;;;;;5016644;28;20042;-69
2023/05/16 06:12:57;;;;;;;1.85;1.00;;;;;;;;;;5024232;28;20056;-69
2023/05/16 06:15:25;;;;;;;1.42;1.20;;;;;;;;;;5013422;28;20052;-69
2023/05/16 06:17:52;;;;;;;5.72;1.20;;;;;;;;;;5009523;28;20046;-68
2023/05/16 06:20:18;;;;;;;2.38;1.20;;;;;;;;;;5016785;28;20049;-69
2023/05/16 06:22:45;;;;;;;2.25;1.13;;;;;;;;;;5026058;28;20120;-69
2023/05/16 06:25:11;;;;;;;2.30;1.27;;;;;;;;;;5049395;28;20048;-69
2023/05/16 06:27:38;;;;;;;2.25;1.35;;;;;;;;;;5036558;28;20045;-69
2023/05/16 06:30:05;;;;;;;1.88;1.27;;;;;;;;;;5028701;28;20058;-69
2023/05/16 06:32:33;;;;;;;2.78;1.50;;;;;;;;;;5028458;28;20088;-69
2023/05/16 06:35:00;;;;;;;3.17;1.52;;;;;;;;;;5029325;28;20049;-68
2023/05/16 06:37:27;;;;;;;2.20;1.35;;;;;;;;;;5029593;28;20426;-69
2023/05/16 06:39:53;;;;;;;3.22;1.73;;;;;;;;;;5030607;28;20046;-69
2023/05/16 06:42:20;;;;;;;2.05;1.48;;;;;;;;;;5030381;28;20045;-68
2023/05/16 06:44:46;;;;;;;1.83;1.40;;;;;;;;;;5016330;28;20064;-69
2023/05/16 06:47:13;;;;;;;3.45;1.60;;;;;;;;;;5009811;28;20049;-69
2023/05/16 06:49:41;;;;;;;3.67;1.90;;;;;;;;;;5015126;28;20048;-69
2023/05/16 06:52:08;;;;;;;4.03;1.85;;;;;;;;;;5017569;28;20045;-69
2023/05/16 06:54:34;;;;;;;3.58;1.55;;;;;;;;;;5030273;28;20140;-69
2023/05/16 06:57:02;;;;;;;4.25;1.83;;;;;;;;;;5016265;28;20072;-69
2023/05/16 06:59:28;;;;;;;7.93;2.65;;;;;;;;;;5024887;28;20136;-69
2023/05/16 07:01:55;;;;;;;3.05;2.20;;;;;;;;;;5029534;28;20064;-69
2023/05/16 07:04:21;;;;;;;4.88;2.47;;;;;;;;;;5013600;28;20050;-69
2023/05/16 07:06:49;;;;;;;5.55;2.45;;;;;;;;;;5012117;28;20376;-69
2023/05/16 07:09:16;;;;;;;7.28;2.70;;;;;;;;;;5022418;28;20051;-69
2023/05/16 07:11:42;;;;;;;4.00;2.40;;;;;;;;;;5019639;28;20051;-69
2023/05/16 07:14:09;;;;;;;7.72;3.10;;;;;;;;;;5010647;28;20129;-70
2023/05/16 07:16:36;;;;;;;9.52;3.25;;;;;;;;;;5015802;28;20423;-70
2023/05/16 07:19:03;;;;;;;8.50;3.33;;;;;;;;;;5020524;28;20042;-70
2023/05/16 07:21:29;;;;;;;7.95;3.17;;;;;;;;;;5007362;28;20415;-70
2023/05/16 07:23:57;;;;;;;11.68;5.40;;;;;;;;;;5019405;28;20088;-71
2023/05/16 07:26:24;;;;;;;8.40;3.35;;;;;;;;;;5021030;28;20050;-70
2023/05/16 07:28:51;;;;;;;6.00;3.70;;;;;;;;;;5027282;28;20510;-71
2023/05/16 07:31:17;;;;;;;9.50;3.47;;;;;;;;;;5026810;28;20049;-71
2023/05/16 07:33:45;;;;;;;11.38;3.85;;;;;;;;;;5026652;28;20464;-71
2023/05/16 07:36:12;;;;;;;9.20;4.20;;;;;;;;;;5011659;28;20050;-71
2023/05/16 07:38:39;;;;;;;6.25;3.50;;;;;;;;;;5009104;28;20415;-72
2023/05/16 07:41:06;;;;;;;8.88;3.78;;;;;;;;;;5006612;28;20058;-71
2023/05/16 07:43:34;;;;;;;10.32;4.07;;;;;;;;;;5028957;28;20049;-71
2023/05/16 07:46:01;;;;;;;8.07;3.72;;;;;;;;;;5022519;28;20056;-70
2023/05/16 07:48:27;;;;;;;8.25;3.65;;;;;;;;;;5017575;28;20077;-71
2023/05/16 07:50:54;;;;;;;8.35;4.13;;;;;;;;;;5016492;28;20046;-71
2023/05/16 07:53:21;;;;;;;10.15;4.35;;;;;;;;;;5019896;28;20041;-71
2023/05/16 07:55:48;;;;;;;10.88;4.75;;;;;;;;;;5017054;28;20491;-71
2023/05/16 07:58:16;;;;;;;9.55;4.80;;;;;;;;;;5009294;28;20059;-71
2023/05/16 08:00:42;;;;;;;9.43;4.05;;;;;;;;;;5010136;28;20506;-70
2023/05/16 08:03:09;;;;;;;7.78;4.15;;;;;;;;;;5021095;28;20519;-71
2023/05/16 08:05:36;;;;;;;9.30;4.30;;;;;;;;;;5018133;28;20044;-71
2023/05/16 08:08:02;;;;;;;9.45;4.10;;;;;;;;;;5021899;28;20140;-71
2023/05/16 08:10:29;;;;;;;8.45;3.88;;;;;;;;;;5020237;28;20319;-70
2023/05/16 08:12:55;;;;;;;10.13;4.63;;;;;;;;;;5024971;28;20053;-70
2023/05/16 08:15:24;;;;;;;9.77;4.85;;;;;;;;;;5020799;28;20513;-70
2023/05/16 08:17:50;;;;;;;17.70;4.43;;;;;;;;;;5010116;28;20045;-71
2023/05/16 08:20:17;;;;;;;11.02;4.53;;;;;;;;;;5016698;28;20049;-71
2023/05/16 08:22:43;;;;;;;8.00;4.20;;;;;;;;;;5019689;28;20061;-71
2023/05/16 08:25:10;;;;;;;6.75;3.97;;;;;;;;;;5019200;28;20140;-71
2023/05/16 08:27:37;;;;;;;10.25;5.15;;;;;;;;;;5027223;28;20053;-71
2023/05/16 08:30:04;;;;;;;9.20;4.18;;;;;;;;;;5019848;28;20412;-71
2023/05/16 08:32:32;;;;;;;6.30;3.88;;;;;;;;;;5020224;28;20392;-71
2023/05/16 08:34:58;;;;;;;7.05;3.60;;;;;;;;;;5021290;28;20496;-71
2023/05/16 08:37:25;;;;;;;7.80;3.35;;;;;;;;;;5019182;28;20046;-71
2023/05/16 08:39:51;;;;;;;5.20;3.40;;;;;;;;;;5023868;28;20057;-71
2023/05/16 08:42:18;;;;;;;6.60;3.58;;;;;;;;;;5017115;28;20500;-71
2023/05/16 08:44:44;;;;;;;5.95;3.05;;;;;;;;;;5020144;28;20052;-71
2023/05/16 08:47:13;;;;;;;5.70;3.05;;;;;;;;;;5016063;28;20064;-71
2023/05/16 08:49:43;;;;;;;5.90;2.90;;;;;;;;;;5010817;28;20123;-71
2023/05/16 08:52:10;;;;;;;5.38;2.70;;;;;;;;;;5017000;28;20051;-71
2023/05/16 08:54:37;;;;;;;7.05;3.17;;;;;;;;;;5015543;28;20510;-71
2023/05/16 08:57:05;;;;;;;6.70;2.60;;;;;;;;;;5020012;28;20045;-71
2023/05/16 08:59:32;;;;;;;7.78;3.45;;;;;;;;;;5019019;28;20065;-71
2023/05/16 09:01:59;;;;;;;5.78;2.80;;;;;;;;;;5028299;28;20148;-71
2023/05/16 09:04:26;;;;;;;6.88;2.58;;;;;;;;;;5012576;28;20053;-71
2023/05/16 09:06:54;;;;;;;7.10;2.80;;;;;;;;;;5028059;28;20466;-71
2023/05/16 09:09:20;;;;;;;6.03;2.67;;;;;;;;;;5020488;28;20044;-71
2023/05/16 09:11:47;;;;;;;3.03;2.00;;;;;;;;;;5024837;28;20077;-70
2023/05/16 09:14:14;;;;;;;6.20;2.13;;;;;;;;;;5025979;28;20042;-70
2023/05/16 09:16:41;;;;;;;7.10;1.98;;;;;;;;;;5027766;28;20045;-70
2023/05/16 09:19:07;;;;;;;3.30;1.75;;;;;;;;;;5021643;28;20120;-70
2023/05/16 09:21:35;;;;;;;4.68;2.15;;;;;;;;;;5022172;28;20049;-70
2023/05/16 09:24:08;;;;;;;5.57;2.30;;;;;;;;;;5031620;28;20056;-70
2023/05/16 09:26:37;;;;;;;6.07;1.90;;;;;;;;;;5023433;28;20045;-70
2023/05/16 09:29:11;;;;;;;3.88;1.95;;;;;;;;;;5013842;28;20438;-70
2023/05/16 09:31:38;;;;;;;5.22;2.15;;;;;;;;;;5029809;28;20132;-70
2023/05/16 09:34:07;;;;;;;5.43;2.03;;;;;;;;;;5030950;28;20403;-69
2023/05/16 09:36:34;;;;;;;4.82;1.98;;;;;;;;;;5021215;28;20046;-69
2023/05/16 09:39:02;;;;;;;5.97;2.00;;;;;;;;;;5011816;28;20065;-69
2023/05/16 09:41:33;;;;;;;4.22;2.10;;;;;;;;;;5015820;28;20112;-69
2023/05/16 09:44:04;;;;;;;3.17;1.95;;;;;;;;;;5011379;28;20566;-70
2023/05/16 09:46:30;;;;;;;4.28;1.80;;;;;;;;;;5020149;28;20414;-69
2023/05/16 09:48:57;;;;;;;3.85;1.58;;;;;;;;;;5023344;28;20388;-70
2023/05/16 09:51:24;;;;;;;7.38;2.17;;;;;;;;;;5028938;28;20045;-70
2023/05/16 09:53:50;;;;;;;5.72;1.92;;;;;;;;;;5029824;28;20499;-69
2023/05/16 09:56:17;;;;;;;5.93;2.00;;;;;;;;;;5012760;28;20046;-69
2023/05/16 09:58:46;;;;;;;6.55;2.22;;;;;;;;;;5023189;28;20075;-69
2023/05/16 10:01:12;;;;;;;4.95;2.15;;;;;;;;;;5031293;28;20088;-69
2023/05/16 10:03:41;;;;;;;5.05;2.25;;;;;;;;;;5018263;28;20045;-70
2023/05/16 10:06:08;;;;;;;5.07;2.00;;;;;;;;;;5011190;28;20398;-69
2023/05/16 10:08:36;;;;;;;4.20;1.80;;;;;;;;;;5010721;28;20393;-69
2023/05/16 10:11:04;;;;;;;2.15;1.65;;;;;;;;;;5015126;28;20052;-69
2023/05/16 10:13:32;;;;;;;4.78;1.67;;;;;;;;;;5027268;28;20060;-70
2023/05/16 10:16:06;;;;;;;4.63;1.70;;;;;;;;;;5031214;28;20064;-70
2023/05/16 10:18:34;;;;;;;4.05;1.60;;;;;;;;;;5027124;28;20235;-70
2023/05/16 10:21:05;;;;;;;2.85;1.88;;;;;;;;;;5029121;28;20458;-70
2023/05/16 10:23:33;;;;;;;6.00;1.90;;;;;;;;;;5026310;28;20056;-70
2023/05/16 10:26:02;;;;;;;3.40;1.75;;;;;;;;;;5010926;28;20077;-70
2023/05/16 10:28:29;;;;;;;2.92;1.80;;;;;;;;;;5018106;28;20516;-69
2023/05/16 10:30:57;;;;;;;5.70;2.10;;;;;;;;;;5020849;28;20487;-69
2023/05/16 10:33:25;;;;;;;5.90;1.92;;;;;;;;;;5035633;28;20059;-69
2023/05/16 10:35:52;;;;;;;4.00;2.08;;;;;;;;;;5011003;28;20129;-68
2023/05/16 10:38:21;;;;;;;3.28;1.95;;;;;;;;;;5031910;28;20053;-69
2023/05/16 10:40:48;;;;;;;3.83;1.95;;;;;;;;;;5037643;28;20056;-69
2023/05/16 10:43:23;;;;;;;6.90;2.20;;;;;;;;;;5029229;28;20057;-69
2023/05/16 10:45:54;;;;;;;2.28;1.70;;;;;;;;;;5011511;28;20104;-67
2023/05/16 10:48:29;;;;;;;3.53;1.80;;;;;;;;;;5010627;28;20546;-68
2023/05/16 10:50:55;;;;;;;5.00;2.10;;;;;;;;;;5035594;28;20045;-68
2023/05/16 10:53:23;;;;;;;4.50;1.90;;;;;;;;;;5047841;28;20506;-68
2023/05/16 10:56:05;;;;;;;3.45;1.77;;;;;;;;;;5024924;28;20385;-68
2023/05/16 10:58:44;;;;;;;2.90;1.75;;;;;;;;;;5029197;28;20507;-68
2023/05/16 11:01:19;;;;;;;3.97;2.10;;;;;;;;;;5021326;28;20310;-68
2023/05/16 11:04:10;;;;;;;5.72;1.92;;;;;;;;;;5012701;28;20120;-68
2023/05/16 11:06:45;;;;;;;5.55;1.80;;;;;;;;;;5011392;28;20050;-68
2023/05/16 11:09:23;;;;;;;4.57;1.77;;;;;;;;;;5027269;28;20072;-68
2023/05/16 11:11:56;;;;;;;3.50;1.70;;;;;;;;;;5030071;28;20466;-68
2023/05/16 11:14:25;;;;;;;3.67;1.60;;;;;;;;;;5029976;28;20099;-68
2023/05/16 11:16:53;;;;;;;3.08;1.45;;;;;;;;;;5015246;28;20053;-68
2023/05/16 11:19:33;;;;;;;5.05;1.88;;;;;;;;;;5025716;28;20049;-67
2023/05/16 11:22:10;;;;;;;4.32;1.38;;;;;;;;;;5025603;28;20045;-67
2023/05/16 11:24:39;;;;;;;4.55;1.48;;;;;;;;;;5029953;28;20184;-68
2023/05/16 11:27:06;;;;;;;5.22;1.75;;;;;;;;;;5030304;28;20049;-69
2023/05/16 11:29:34;;;;;;;4.88;1.20;;;;;;;;;;5029578;28;20045;-67
2023/05/16 11:32:02;;;;;;;5.40;2.15;;;;;;;;;;5030305;28;20049;-67
2023/05/16 11:34:30;;;;;;;3.25;1.33;;;;;;;;;;5028139;28;20038;-68
2023/05/16 11:36:59;;;;;;;3.70;1.40;;;;;;;;;;5012808;28;20046;-67
2023/05/16 11:39:25;;;;;;;1.92;1.23;;;;;;;;;;5010207;28;20533;-68
2023/05/16 11:41:53;;;;;;;8.13;1.30;;;;;;;;;;5010477;28;20488;-69
2023/05/16 11:44:19;;;;;;;1.85;1.00;;;;;;;;;;5010036;28;20049;-68
2023/05/16 11:46:46;;;;;;;5.53;1.17;;;;;;;;;;5010868;28;20049;-68
2023/05/16 11:49:13;;;;;;;3.88;1.10;;;;;;;;;;5010609;28;20050;-69
2023/05/16 11:51:42;;;;;;;2.53;1.10;;;;;;;;;;5010983;28;20042;-68
2023/05/16 11:54:10;;;;;;;2.80;1.20;;;;;;;;;;5030482;28;20479;-68
2023/05/16 11:56:37;;;;;;;3.60;0.98;;;;;;;;;;5029456;28;20475;-68
2023/05/16 11:59:03;;;;;;;3.38;1.67;;;;;;;;;;5030146;28;20072;-68
2023/05/16 12:01:34;;;;;;;3.78;1.40;;;;;;;;;;5029460;28;20443;-67
2023/05/16 12:04:00;;;;;;;3.67;1.02;;;;;;;;;;5029667;28;20045;-69
2023/05/16 12:06:29;;;;;;;8.00;1.65;;;;;;;;;;5029509;28;20059;-69
2023/05/16 12:08:57;;;;;;;3.78;1.15;;;;;;;;;;5030043;28;20045;-69
2023/05/16 12:11:24;;;;;;;5.10;1.27;;;;;;;;;;5029695;28;20410;-68
2023/05/16 12:13:51;;;;;;;4.45;1.15;;;;;;;;;;5030310;28;20095;-68
2023/05/16 12:16:18;;;;;;;3.05;1.10;;;;;;;;;;5029584;28;20088;-68
2023/05/16 12:18:45;;;;;;;4.43;1.15;;;;;;;;;;5030143;28;20233;-69
2023/05/16 12:21:12;;;;;;;2.17;1.10;;;;;;;;;;5029748;28;20053;-69
2023/05/16 12:23:41;;;;;;;3.45;1.08;;;;;;;;;;5029434;28;20038;-67
2023/05/16 12:26:09;;;;;;;2.90;1.10;;;;;;;;;;5029989;28;20049;-68
2023/05/16 12:28:38;;;;;;;3.15;0.88;;;;;;;;;;5029988;28;20057;-68
2023/05/16 12:31:11;;;;;;;2.58;0.80;;;;;;;;;;5029834;28;20042;-68
2023/05/16 12:33:37;;;;;;;4.47;1.27;;;;;;;;;;5015142;28;20136;-69
2023/05/16 12:36:04;;;;;;;4.80;0.82;;;;;;;;;;5011304;28;20096;-69
2023/05/16 12:38:31;;;;;;;6.13;1.33;;;;;;;;;;5013771;28;20041;-69
2023/05/16 12:40:58;;;;;;;3.08;0.88;;;;;;;;;;5014016;28;20396;-68
2023/05/16 12:43:27;;;;;;;2.70;0.88;;;;;;;;;;5013633;28;20082;-69
2023/05/16 12:45:55;;;;;;;5.07;1.40;;;;;;;;;;5013832;28;20407;-69
2023/05/16 12:48:23;;;;;;;3.10;0.80;;;;;;;;;;5013142;28;20476;-69
2023/05/16 12:50:50;;;;;;;5.97;1.15;;;;;;;;;;5031122;28;20046;-69
2023/05/16 12:53:18;;;;;;;2.97;1.05;;;;;;;;;;5032828;28;20041;-69
2023/05/16 12:55:45;;;;;;;3.13;1.10;;;;;;;;;;5033253;28;20041;-69
2023/05/16 12:58:12;;;;;;;2.72;0.80;;;;;;;;;;5032935;28;20049;-68
2023/05/16 13:00:40;;;;;;;1.45;0.75;;;;;;;;;;5032846;28;20045;-69
2023/05/16 13:03:07;;;;;;;1.90;0.80;;;;;;;;;;5033512;28;20434;-68
2023/05/16 13:05:34;;;;;;;4.70;1.08;;;;;;;;;;5032461;28;20046;-69
2023/05/16 13:08:01;;;;;;;3.08;0.80;;;;;;;;;;5034728;28;20248;-69
2023/05/16 13:10:28;;;;;;;3.63;0.95;;;;;;;;;;5015428;28;20506;-69
2023/05/16 13:12:57;;;;;;;4.55;1.10;;;;;;;;;;5013661;28;20229;-69
2023/05/16 13:15:24;;;;;;;4.40;1.27;;;;;;;;;;5013056;28;20060;-69
2023/05/16 13:17:51;;;;;;;4.22;0.90;;;;;;;;;;5012824;28;20045;-69
2023/05/16 13:20:19;;;;;;;3.10;0.98;;;;;;;;;;5012843;28;20061;-69
2023/05/16 13:22:45;;;;;;;2.97;1.35;;;;;;;;;;5013364;28;20526;-68
2023/05/16 13:25:12;;;;;;;2.20;1.30;;;;;;;;;;5012932;28;20069;-68
2023/05/16 13:27:39;;;;;;;3.88;1.30;;;;;;;;;;5013479;28;20046;-68
2023/05/16 13:30:06;;;;;;;4.65;1.05;;;;;;;;;;5013182;28;20053;-68
2023/05/16 13:32:33;;;;;;;3.35;1.10;;;;;;;;;;5012664;28;20057;-69
2023/05/16 13:35:01;;;;;;;3.83;1.30;;;;;;;;;;5012195;28;20480;-69
2023/05/16 13:37:27;;;;;;;2.10;0.98;;;;;;;;;;5012887;28;20049;-69
2023/05/16 13:39:54;;;;;;;2.88;1.08;;;;;;;;;;5012787;28;20050;-69
2023/05/16 13:42:21;;;;;;;1.65;1.00;;;;;;;;;;5012151;28;20049;-69
2023/05/16 13:44:48;;;;;;;2.60;0.80;;;;;;;;;;5012980;28;20395;-69
2023/05/16 13:47:15;;;;;;;2.83;1.00;;;;;;;;;;5011721;28;20049;-69
2023/05/16 13:49:41;;;;;;;3.85;1.27;;;;;;;;;;5012454;28;20050;-69
2023/05/16 13:52:09;;;;;;;3.08;1.20;;;;;;;;;;5012649;28;20065;-69
2023/05/16 13:54:36;;;;;;;3.30;1.13;;;;;;;;;;5012940;28;20415;-69
2023/05/16 13:57:03;;;;;;;3.58;1.20;;;;;;;;;;5012030;28;20050;-68
2023/05/16 13:59:30;;;;;;;3.72;1.10;;;;;;;;;;5012439;28;20085;-69
2023/05/16 14:01:56;;;;;;;4.18;0.98;;;;;;;;;;5012192;28;20046;-69
2023/05/16 14:04:23;;;;;;;4.50;1.00;;;;;;;;;;5011954;28;20047;-69
2023/05/16 14:06:49;;;;;;;3.65;1.05;;;;;;;;;;5012421;28;20484;-69
2023/05/16 14:09:17;;;;;;;2.10;0.90;;;;;;;;;;5011991;28;20495;-68
2023/05/16 14:11:44;;;;;;;4.10;1.00;;;;;;;;;;5012256;28;20049;-69
2023/05/16 14:14:10;;;;;;;3.53;0.95;;;;;;;;;;5012158;28;20054;-69
2023/05/16 14:16:37;;;;;;;3.75;1.02;;;;;;;;;;5012332;28;20424;-69
2023/05/16 14:19:03;;;;;;;7.18;1.10;;;;;;;;;;5011995;28;20050;-69
2023/05/16 14:21:30;;;;;;;1.17;0.85;;;;;;;;;;5012194;28;20076;-69
2023/05/16 14:23:56;;;;;;;2.58;1.08;;;;;;;;;;5011823;28;20054;-69
2023/05/16 14:26:25;;;;;;;3.22;1.10;;;;;;;;;;5011780;28;20057;-70
2023/05/16 14:28:52;;;;;;;1.50;0.80;;;;;;;;;;5011329;28;20053;-69
2023/05/16 14:31:18;;;;;;;4.25;1.10;;;;;;;;;;5012056;28;20049;-69
2023/05/16 14:33:45;;;;;;;1.65;0.80;;;;;;;;;;5011908;28;20391;-67
2023/05/16 14:36:14;;;;;;;3.00;0.90;;;;;;;;;;5012104;28;20053;-69
2023/05/16 14:38:41;;;;;;;2.50;0.95;;;;;;;;;;5012215;28;20050;-70
2023/05/16 14:41:08;;;;;;;1.25;1.00;;;;;;;;;;5011538;28;20049;-70
2023/05/16 14:43:36;;;;;;;6.90;0.82;;;;;;;;;;5011705;28;20092;-67
2023/05/16 14:46:03;;;;;;;3.15;1.10;;;;;;;;;;5011106;28;20041;-70